Terminal Aerodrome Forecast
Issued by NWS

Home | Current Version | Previous Version | Text Only | Print | Product List | Glossary On
Versions: 1 2 3 4 5 6 7 8 9 10 11 12 13 14 15 16 17 18 19 20
000
FTAK31 PAJN 071132
TAFAPG
TAF
PAPG 071132Z 0712/0812 10005KT P6SM -RA BKN035 OVC050 WS020/11030KT
     FM071500 12010KT P6SM -RA SCT007 BKN025 OVC040 WS020/12040KT
     FM071800 24005KT P6SM -RA BKN007 BKN025 OVC040 WS020/14035KT
     FM072100 24003KT 4SM -SHRA BR SCT007 BKN025 OVC050
     FM080300 23003KT 6SM BR VCSH SCT025 OVC050
      AMD LTD TO CLD VIS AND WIND 0712/0715=

USA.gov is the U.S. government's official web portal to all federal, state and local government web resources and services.